Time,TemperatureF,DewpointF,PressureIn,WindDirection,WindDirectionDegrees,WindSpeedMPH,WindSpeedGustMPH,Humidity,HourlyPrecipIn,Conditions,Clouds,dailyrainin,SoftwareType,DateUTC
2013-07-29 00:02:00,67.0,43.0,-100.00,NNW,336,11.0,17.0,42,0.00,,,0.00,,2013-07-29 06:02:00,
2013-07-29 00:12:00,67.0,43.0,-100.00,NNW,336,11.0,17.0,42,0.00,,,0.00,,2013-07-29 06:12:00,
2013-07-29 00:43:00,66.0,44.0,-100.00,NNW,344,11.0,16.0,45,0.00,,,0.00,,2013-07-29 06:43:00,
2013-07-29 00:52:00,66.0,44.0,-100.00,NNW,344,11.0,16.0,45,0.00,,,0.00,,2013-07-29 06:52:00,
2013-07-29 01:02:00,66.0,44.0,-100.00,NNW,344,11.0,16.0,45,0.00,,,0.00,,2013-07-29 07:02:00,
2013-07-29 01:12:00,66.0,44.0,-100.00,NNW,344,11.0,16.0,45,0.00,,,0.00,,2013-07-29 07:12:00,
2013-07-29 01:43:00,63.0,47.0,-100.00,NNE,18,9.0,14.0,54,0.00,,,0.00,,2013-07-29 07:43:00,
2013-07-29 01:53:00,63.0,47.0,-100.00,NNE,18,9.0,14.0,54,0.00,,,0.00,,2013-07-29 07:53:00,
2013-07-29 02:02:00,63.0,47.0,-100.00,NNE,18,9.0,14.0,54,0.00,,,0.00,,2013-07-29 08:02:00,
2013-07-29 02:12:00,63.0,47.0,-100.00,NNE,18,9.0,14.0,54,0.00,,,0.00,,2013-07-29 08:12:00,
2013-07-29 02:42:00,62.0,46.0,-100.00,NW,322,5.0,9.0,57,0.00,,,0.00,,2013-07-29 08:42:00,
2013-07-29 02:52:00,62.0,46.0,-100.00,NW,322,5.0,9.0,57,0.00,,,0.00,,2013-07-29 08:52:00,
2013-07-29 03:02:00,62.0,46.0,-100.00,NW,322,5.0,9.0,57,0.00,,,0.00,,2013-07-29 09:02:00,
2013-07-29 03:12:00,62.0,46.0,-100.00,NW,322,5.0,9.0,57,0.00,,,0.00,,2013-07-29 09:12:00,
2013-07-29 03:43:00,60.0,48.0,-100.00,North,350,11.0,18.0,66,0.02,,,0.02,,2013-07-29 09:43:00,
2013-07-29 03:53:00,60.0,48.0,-100.00,North,350,11.0,18.0,66,0.02,,,0.02,,2013-07-29 09:53:00,
2013-07-29 04:02:00,60.0,48.0,-100.00,North,350,11.0,18.0,66,0.02,,,0.02,,2013-07-29 10:02:00,
2013-07-29 04:13:00,60.0,48.0,-100.00,North,350,11.0,18.0,66,0.02,,,0.02,,2013-07-29 10:13:00,
2013-07-29 04:46:00,55.0,45.0,-100.00,North,350,18.0,27.0,69,0.00,,,0.02,,2013-07-29 10:46:00,
2013-07-29 04:55:00,55.0,45.0,-100.00,North,350,18.0,27.0,69,0.00,,,0.02,,2013-07-29 10:55:00,
2013-07-29 05:03:00,55.0,45.0,-100.00,North,350,18.0,27.0,69,0.00,,,0.02,,2013-07-29 11:03:00,
2013-07-29 05:13:00,55.0,45.0,-100.00,North,350,18.0,27.0,69,0.00,,,0.02,,2013-07-29 11:13:00,
2013-07-29 05:44:00,54.0,44.0,-100.00,NNW,345,17.0,25.0,70,0.00,,,0.02,,2013-07-29 11:44:00,
2013-07-29 05:58:00,54.0,44.0,-100.00,NNW,345,17.0,25.0,70,0.00,,,0.02,,2013-07-29 11:58:00,
2013-07-29 06:13:00,54.0,44.0,-100.00,NNW,345,17.0,25.0,70,0.00,,,0.02,,2013-07-29 12:13:00,
2013-07-29 06:44:00,53.0,44.0,-100.00,NNW,342,14.0,22.0,72,0.00,,,0.02,,2013-07-29 12:44:00,
2013-07-29 06:57:00,53.0,44.0,-100.00,NNW,342,14.0,22.0,72,0.00,,,0.02,,2013-07-29 12:57:00,
2013-07-29 07:03:00,53.0,44.0,-100.00,NNW,342,14.0,22.0,72,0.00,,,0.02,,2013-07-29 13:03:00,
2013-07-29 07:57:00,54.0,44.0,-100.00,NNW,341,10.0,14.0,68,0.00,,,0.02,,2013-07-29 13:57:00,
2013-07-29 08:03:00,54.0,44.0,-100.00,NNW,341,10.0,14.0,68,0.00,,,0.02,,2013-07-29 14:03:00,
2013-07-29 08:12:00,54.0,44.0,-100.00,NNW,341,10.0,14.0,68,0.00,,,0.02,,2013-07-29 14:12:00,
2013-07-29 08:43:00,57.0,44.0,-100.00,NNW,343,8.0,14.0,61,0.00,,,0.02,,2013-07-29 14:43:00,
2013-07-29 09:12:00,57.0,44.0,-100.00,NNW,343,8.0,14.0,61,0.00,,,0.02,,2013-07-29 15:12:00,
2013-07-29 09:44:00,61.0,45.0,-100.00,North,359,2.0,6.0,55,0.00,,,0.02,,2013-07-29 15:44:00,
2013-07-29 09:55:00,61.0,45.0,-100.00,North,359,2.0,6.0,55,0.00,,,0.02,,2013-07-29 15:55:00,
2013-07-29 10:04:00,61.0,45.0,-100.00,North,359,2.0,6.0,55,0.00,,,0.02,,2013-07-29 16:04:00,
2013-07-29 10:12:00,61.0,45.0,-100.00,North,359,2.0,6.0,55,0.00,,,0.02,,2013-07-29 16:12:00,
2013-07-29 10:44:00,62.0,45.0,-100.00,South,185,3.0,6.0,54,0.00,,,0.02,,2013-07-29 16:44:00,
2013-07-29 10:57:00,62.0,45.0,-100.00,South,185,3.0,6.0,54,0.00,,,0.02,,2013-07-29 16:57:00,
2013-07-29 11:05:00,62.0,45.0,-100.00,South,185,3.0,6.0,54,0.00,,,0.02,,2013-07-29 17:05:00,
2013-07-29 11:43:00,66.0,45.0,-100.00,SSW,207,3.0,7.0,48,0.00,,,0.02,,2013-07-29 17:43:00,
2013-07-29 11:58:00,66.0,45.0,-100.00,SSW,207,3.0,7.0,48,0.00,,,0.02,,2013-07-29 17:58:00,
2013-07-29 12:03:00,66.0,45.0,-100.00,SSW,207,3.0,7.0,48,0.00,,,0.02,,2013-07-29 18:03:00,
2013-07-29 12:13:00,66.0,45.0,-100.00,SSW,207,3.0,7.0,48,0.00,,,0.02,,2013-07-29 18:13:00,
2013-07-29 12:43:00,68.0,46.0,-100.00,North,11,4.0,10.0,45,-99.99,,,0.01,,2013-07-29 18:43:00,
2013-07-29 12:57:00,68.0,46.0,-100.00,North,11,4.0,10.0,45,-99.99,,,0.01,,2013-07-29 18:57:00,
2013-07-29 13:02:00,68.0,46.0,-100.00,North,11,4.0,10.0,45,-99.99,,,0.01,,2013-07-29 19:02:00,
2013-07-29 13:13:00,68.0,46.0,-100.00,North,11,4.0,10.0,45,-99.99,,,0.01,,2013-07-29 19:13:00,
2013-07-29 13:44:00,72.0,46.0,-100.00,NNE,28,6.0,12.0,40,0.01,,,0.02,,2013-07-29 19:44:00,
2013-07-29 13:57:00,72.0,46.0,-100.00,NNE,28,6.0,12.0,40,0.01,,,0.02,,2013-07-29 19:57:00,
2013-07-29 14:04:00,72.0,46.0,-100.00,NNE,28,6.0,12.0,40,0.01,,,0.02,,2013-07-29 20:04:00,
2013-07-29 14:12:00,72.0,46.0,-100.00,NNE,28,6.0,12.0,40,0.01,,,0.02,,2013-07-29 20:12:00,
2013-07-29 14:46:00,74.0,45.0,-100.00,NNE,26,6.0,12.0,35,0.00,,,0.02,,2013-07-29 20:46:00,
2013-07-29 14:58:00,74.0,45.0,-100.00,NNE,26,6.0,12.0,35,0.00,,,0.02,,2013-07-29 20:58:00,
2013-07-29 15:04:00,74.0,45.0,-100.00,NNE,26,6.0,12.0,35,0.00,,,0.02,,2013-07-29 21:04:00,
2013-07-29 15:13:00,74.0,45.0,-100.00,NNE,26,6.0,12.0,35,0.00,,,0.02,,2013-07-29 21:13:00,
2013-07-29 15:45:00,76.0,44.0,-100.00,NNE,21,8.0,15.0,32,0.00,,,-99.99,,2013-07-29 21:45:00,
2013-07-29 15:59:00,76.0,44.0,-100.00,NNE,21,8.0,15.0,32,0.00,,,-99.99,,2013-07-29 21:59:00,
2013-07-29 16:12:00,76.0,44.0,-100.00,NNE,21,8.0,15.0,32,0.00,,,-99.99,,2013-07-29 22:12:00,
2013-07-29 16:43:00,77.0,44.0,-100.00,NNE,17,9.0,14.0,31,0.00,,,0.02,,2013-07-29 22:43:00,
2013-07-29 16:55:00,77.0,44.0,-100.00,NNE,17,9.0,14.0,31,0.00,,,0.02,,2013-07-29 22:55:00,
2013-07-29 17:04:00,77.0,44.0,-100.00,NNE,17,9.0,14.0,31,0.00,,,0.02,,2013-07-29 23:04:00,
2013-07-29 17:12:00,77.0,44.0,-100.00,NNE,17,9.0,14.0,31,0.00,,,0.02,,2013-07-29 23:12:00,
2013-07-29 17:44:00,78.0,41.0,-100.00,NNE,32,9.0,14.0,27,-99.99,,,0.01,,2013-07-29 23:44:00,
2013-07-29 17:56:00,78.0,41.0,-100.00,NNE,32,9.0,14.0,27,-99.99,,,0.01,,2013-07-29 23:56:00,
2013-07-29 18:03:00,78.0,41.0,-100.00,NNE,32,9.0,14.0,27,-99.99,,,0.01,,2013-07-30 00:03:00,
2013-07-29 18:13:00,78.0,41.0,-100.00,NNE,32,9.0,14.0,27,-99.99,,,0.01,,2013-07-30 00:13:00,
2013-07-29 18:45:00,77.0,40.0,-100.00,NNE,19,7.0,12.0,27,0.00,,,0.01,,2013-07-30 00:45:00,
2013-07-29 18:55:00,77.0,40.0,-100.00,NNE,19,7.0,12.0,27,0.00,,,0.01,,2013-07-30 00:55:00,
2013-07-29 19:13:00,77.0,40.0,-100.00,NNE,19,7.0,12.0,27,0.00,,,0.01,,2013-07-30 01:13:00,
2013-07-29 19:44:00,74.0,44.0,-100.00,NNE,28,7.0,11.0,35,0.00,,,0.02,,2013-07-30 01:44:00,
2013-07-29 19:59:00,74.0,44.0,-100.00,NNE,28,7.0,11.0,35,0.00,,,0.02,,2013-07-30 01:59:00,
2013-07-29 20:04:00,74.0,44.0,-100.00,NNE,28,7.0,11.0,35,0.00,,,0.02,,2013-07-30 02:04:00,
2013-07-29 20:13:00,74.0,44.0,-100.00,NNE,28,7.0,11.0,35,0.00,,,0.02,,2013-07-30 02:13:00,
2013-07-29 20:45:00,71.0,44.0,-100.00,NNW,339,7.0,11.0,37,0.00,,,0.01,,2013-07-30 02:45:00,
2013-07-29 20:55:00,71.0,44.0,-100.00,NNW,339,7.0,11.0,37,0.00,,,0.01,,2013-07-30 02:55:00,
2013-07-29 21:05:00,71.0,44.0,-100.00,NNW,339,7.0,11.0,37,0.00,,,0.01,,2013-07-30 03:05:00,
2013-07-29 21:13:00,71.0,44.0,-100.00,NNW,339,7.0,11.0,37,0.00,,,0.01,,2013-07-30 03:13:00,
2013-07-29 21:43:00,68.0,42.0,-100.00,NNW,336,12.0,16.0,39,0.01,,,0.02,,2013-07-30 03:43:00,
2013-07-29 21:55:00,68.0,42.0,-100.00,NNW,336,12.0,16.0,39,0.01,,,0.02,,2013-07-30 03:55:00,
2013-07-29 22:02:00,68.0,42.0,-100.00,NNW,336,12.0,16.0,39,0.01,,,0.02,,2013-07-30 04:02:00,
2013-07-29 22:12:00,68.0,42.0,-100.00,NNW,336,12.0,16.0,39,0.01,,,0.02,,2013-07-30 04:12:00,
2013-07-29 22:43:00,65.0,42.0,-100.00,NNW,338,8.0,12.0,43,0.00,,,0.02,,2013-07-30 04:43:00,
2013-07-29 22:53:00,65.0,42.0,-100.00,NNW,338,8.0,12.0,43,0.00,,,0.02,,2013-07-30 04:53:00,
2013-07-29 23:02:00,65.0,42.0,-100.00,NNW,338,8.0,12.0,43,0.00,,,0.02,,2013-07-30 05:02:00,
2013-07-29 23:11:00,65.0,42.0,-100.00,NNW,338,8.0,12.0,43,0.00,,,0.02,,2013-07-30 05:11:00,